Olive Branch, Mississippi
Current Conditions -  °F | °C
As of 2:35 AM on Thursday 18 Dec 2014 (Local Time) from KOLV Reporting Station
Overcast Overcast  
Wind Chill: 31°   Ceiling: 8500
Heat Index: 36°   Visibility: 6mi
Dew Point: 36°   Wind: 6mph
Humidity: 100%   Direction: 80°E
Pressure: 30.27"   Gusts: NA
Location:  34.96°N, 89.83°W
Report Text: KOLV 180835Z AUTO 08005KT 6SM FEW060 OVC085 02/02 A3027 RMK A01 P000
Loading
Personal Weather Stations






























Interactive Weather Map New forecast layout! Learn more

10-Day Weather Forecast

Advertisements
Track Severe Weather on mobile